Time;durP1;ratioP1;P1;durP2;ratioP2;P2;SDS_P1;SDS_P2;PMS_P1;PMS_P2;Temp;Humidity;BMP_temperature;BMP_pressure;BME280_temperature;BME280_humidity;BME280_pressure;Samples;Min_cycle;Max_cycle;Signal;HPM_P1;HPM_P2
2021/09/15 00:00:12;;;;;;;;;;;19.00;94.50;;;;;;5035007;28;19920;-73
2021/09/15 00:02:37;;;;;;;;;;;19.10;94.60;;;;;;5036545;28;19944;-73
2021/09/15 00:05:04;;;;;;;;;;;19.00;94.60;;;;;;5035247;28;19966;-72
2021/09/15 00:07:29;;;;;;;;;;;19.00;94.70;;;;;;5038232;28;19909;-72
2021/09/15 00:09:55;;;;;;;;;;;19.00;94.60;;;;;;5036145;28;19941;-72
2021/09/15 00:12:20;;;;;;;;;;;19.00;94.50;;;;;;5037798;28;19971;-71
2021/09/15 00:14:46;;;;;;;;;;;18.90;94.50;;;;;;5037483;28;19999;-71
2021/09/15 00:17:11;;;;;;;;;;;18.90;94.50;;;;;;5040380;28;19959;-72
2021/09/15 00:19:37;;;;;;;;;;;18.90;94.60;;;;;;5044791;28;19920;-71
2021/09/15 00:22:02;;;;;;;;;;;18.90;94.70;;;;;;5120654;22;19937;-71
2021/09/15 00:24:28;;;;;;;;;;;18.90;94.70;;;;;;5063915;28;19916;-71
2021/09/15 00:26:53;;;;;;;;;;;18.90;94.70;;;;;;5062661;28;19963;-71
2021/09/15 00:29:18;;;;;;;;;;;18.90;94.70;;;;;;5065598;28;20042;-71
2021/09/15 00:31:44;;;;;;;;;;;18.90;94.70;;;;;;5056618;28;19916;-71
2021/09/15 00:34:09;;;;;;;;;;;18.90;94.80;;;;;;5039336;28;19967;-71
2021/09/15 00:36:35;;;;;;;;;;;18.90;94.60;;;;;;5057033;28;19975;-70
2021/09/15 00:39:00;;;;;;;;;;;18.90;94.60;;;;;;5056013;28;19917;-70
2021/09/15 00:41:25;;;;;;;;;;;18.90;94.80;;;;;;5056256;28;19924;-70
2021/09/15 00:43:54;;;;;;;;;;;18.90;94.80;;;;;;5055132;28;19916;-71
2021/09/15 00:46:20;;;;;;;;;;;18.80;94.80;;;;;;5056020;28;19913;-71
2021/09/15 00:48:45;;;;;;;;;;;18.90;94.80;;;;;;5057726;28;19943;-70
2021/09/15 00:51:11;;;;;;;;;;;18.90;94.90;;;;;;5057192;28;20465;-71
2021/09/15 00:53:36;;;;;;;;;;;18.80;94.90;;;;;;5056105;28;19924;-71
2021/09/15 00:56:02;;;;;;;;;;;18.90;95.00;;;;;;5057518;28;19916;-70
2021/09/15 00:58:27;;;;;;;;;;;18.90;95.10;;;;;;5056079;28;19965;-71
2021/09/15 01:00:53;;;;;;;;;;;18.90;95.00;;;;;;5053721;28;19924;-71
2021/09/15 01:03:18;;;;;;;;;;;18.90;95.00;;;;;;5057097;28;19913;-71
2021/09/15 01:05:44;;;;;;;;;;;18.80;94.90;;;;;;5037262;28;19917;-70
2021/09/15 01:08:09;;;;;;;;;;;18.80;95.00;;;;;;5054830;28;20402;-71
2021/09/15 01:10:35;;;;;;;;;;;18.80;95.10;;;;;;5052329;28;19917;-70
2021/09/15 01:13:00;;;;;;;;;;;18.80;95.10;;;;;;5056540;28;19913;-70
2021/09/15 01:15:26;;;;;;;;;;;18.80;95.20;;;;;;5060422;28;19979;-70
2021/09/15 01:17:51;;;;;;;;;;;18.80;95.30;;;;;;5056035;28;19917;-70
2021/09/15 01:20:16;;;;;;;;;;;18.80;95.10;;;;;;5059387;28;19916;-70
2021/09/15 01:22:52;;;;;;;;;;;18.70;95.10;;;;;;5060803;28;19917;-71
2021/09/15 01:25:18;;;;;;;;;;;18.70;95.10;;;;;;5022889;28;19917;-71
2021/09/15 01:27:44;;;;;;;;;;;18.70;95.40;;;;;;5059983;28;20410;-70
2021/09/15 01:30:09;;;;;;;;;;;18.70;95.50;;;;;;5059461;28;20375;-71
2021/09/15 01:32:35;;;;;;;;;;;18.70;95.50;;;;;;5059550;28;19986;-71
2021/09/15 01:35:00;;;;;;;;;;;18.70;95.40;;;;;;5058843;28;19930;-70
2021/09/15 01:37:25;;;;;;;;;;;18.70;95.50;;;;;;5041450;28;19916;-71
2021/09/15 01:39:51;;;;;;;;;;;18.70;95.60;;;;;;5058878;28;20312;-71
2021/09/15 01:42:16;;;;;;;;;;;18.80;95.70;;;;;;5060051;28;19916;-70
2021/09/15 01:44:43;;;;;;;;;;;18.70;95.60;;;;;;5057937;28;20380;-71
2021/09/15 01:47:10;;;;;;;;;;;18.70;95.70;;;;;;5059086;28;20567;-71
2021/09/15 01:49:36;;;;;;;;;;;18.70;95.70;;;;;;5060938;28;19952;-71
2021/09/15 01:52:02;;;;;;;;;;;18.70;95.70;;;;;;5060860;28;20323;-71
2021/09/15 01:54:28;;;;;;;;;;;18.70;95.70;;;;;;5059123;28;19913;-71
2021/09/15 01:56:54;;;;;;;;;;;18.70;95.80;;;;;;5060675;28;19916;-69
2021/09/15 01:59:19;;;;;;;;;;;18.70;95.80;;;;;;5060623;28;19913;-69
2021/09/15 02:01:45;;;;;;;;;;;18.80;95.90;;;;;;5060515;28;19924;-69
2021/09/15 02:04:10;;;;;;;;;;;18.80;95.90;;;;;;5057608;28;19921;-69
2021/09/15 02:06:36;;;;;;;;;;;18.70;95.80;;;;;;5060464;28;20063;-69
2021/09/15 02:09:02;;;;;;;;;;;18.70;95.70;;;;;;5058412;28;19944;-69
2021/09/15 02:11:28;;;;;;;;;;;18.70;95.70;;;;;;5060586;28;19908;-69
2021/09/15 02:13:53;;;;;;;;;;;18.70;95.80;;;;;;5039132;28;19942;-69
2021/09/15 02:16:19;;;;;;;;;;;18.70;95.90;;;;;;5060444;28;19913;-69
2021/09/15 02:18:44;;;;;;;;;;;18.70;96.00;;;;;;5057333;28;19924;-69
2021/09/15 02:21:10;;;;;;;;;;;18.70;95.90;;;;;;5055928;28;19928;-69
2021/09/15 02:23:35;;;;;;;;;;;18.70;95.90;;;;;;5058101;28;19917;-69
2021/09/15 02:26:01;;;;;;;;;;;18.70;96.00;;;;;;5057645;28;19913;-69
2021/09/15 02:28:26;;;;;;;;;;;18.70;96.10;;;;;;5059939;28;19912;-69
2021/09/15 02:30:52;;;;;;;;;;;18.70;96.00;;;;;;5060234;28;19917;-69
2021/09/15 02:33:17;;;;;;;;;;;18.70;95.90;;;;;;5059288;28;19936;-69
2021/09/15 02:35:43;;;;;;;;;;;18.70;95.90;;;;;;5057833;28;19917;-69
2021/09/15 02:38:08;;;;;;;;;;;18.70;95.90;;;;;;5041029;28;19913;-69
2021/09/15 02:40:33;;;;;;;;;;;18.70;96.00;;;;;;5059632;28;19917;-69
2021/09/15 02:42:59;;;;;;;;;;;18.70;95.90;;;;;;5057692;28;19912;-69
2021/09/15 02:45:24;;;;;;;;;;;18.70;95.80;;;;;;5058552;28;19912;-69
2021/09/15 02:47:50;;;;;;;;;;;18.60;95.80;;;;;;5058481;28;20319;-69
2021/09/15 02:50:15;;;;;;;;;;;18.60;95.90;;;;;;5058535;28;19916;-69
2021/09/15 02:52:41;;;;;;;;;;;18.60;95.90;;;;;;5058310;28;20299;-69
2021/09/15 02:55:06;;;;;;;;;;;18.50;95.90;;;;;;5057055;28;19928;-69
2021/09/15 02:57:32;;;;;;;;;;;18.50;96.00;;;;;;5059809;28;20279;-69
2021/09/15 02:59:57;;;;;;;;;;;18.50;96.30;;;;;;5055679;28;20430;-69
2021/09/15 03:02:23;;;;;;;;;;;18.50;96.30;;;;;;5057371;28;20074;-69
2021/09/15 03:04:48;;;;;;;;;;;18.50;96.10;;;;;;5057912;28;19917;-69
2021/09/15 03:07:13;;;;;;;;;;;18.50;96.20;;;;;;5059103;28;20743;-69
2021/09/15 03:09:39;;;;;;;;;;;18.60;96.10;;;;;;5058702;28;20454;-69
2021/09/15 03:12:04;;;;;;;;;;;18.60;96.30;;;;;;5058606;28;19909;-69
2021/09/15 03:14:31;;;;;;;;;;;18.60;96.20;;;;;;5024040;28;19917;-69
2021/09/15 03:16:56;;;;;;;;;;;18.60;96.40;;;;;;5057341;28;19986;-69
2021/09/15 03:19:22;;;;;;;;;;;18.60;96.80;;;;;;5057294;28;20325;-69
2021/09/15 03:21:47;;;;;;;;;;;18.60;96.40;;;;;;5057662;28;19987;-69
2021/09/15 03:24:13;;;;;;;;;;;18.60;96.40;;;;;;5056410;28;19993;-69
2021/09/15 03:26:38;;;;;;;;;;;18.60;96.40;;;;;;5057424;28;19924;-69
2021/09/15 03:29:04;;;;;;;;;;;18.50;96.40;;;;;;5056721;28;20287;-68
2021/09/15 03:31:29;;;;;;;;;;;18.60;96.50;;;;;;5058337;28;19912;-69
2021/09/15 03:33:55;;;;;;;;;;;18.60;96.40;;;;;;5056083;28;19963;-69
2021/09/15 03:36:20;;;;;;;;;;;18.50;96.40;;;;;;5055899;28;19912;-69
2021/09/15 03:38:46;;;;;;;;;;;18.50;96.30;;;;;;5056847;28;19917;-69
2021/09/15 03:41:11;;;;;;;;;;;18.50;96.40;;;;;;5058256;28;20323;-68
2021/09/15 03:43:37;;;;;;;;;;;18.50;96.30;;;;;;5058154;28;19935;-69
2021/09/15 03:46:02;;;;;;;;;;;18.40;96.50;;;;;;5056695;28;19955;-69
2021/09/15 03:48:28;;;;;;;;;;;18.50;96.60;;;;;;5058820;28;19931;-69
2021/09/15 03:50:53;;;;;;;;;;;18.50;96.60;;;;;;5058004;28;19916;-71
2021/09/15 03:53:19;;;;;;;;;;;18.50;96.70;;;;;;5056569;28;19917;-72
2021/09/15 03:55:44;;;;;;;;;;;18.50;96.70;;;;;;5055449;28;19909;-72
2021/09/15 03:58:10;;;;;;;;;;;18.50;96.70;;;;;;5058788;28;20462;-71
2021/09/15 04:00:35;;;;;;;;;;;18.50;96.70;;;;;;5054600;28;19928;-71
2021/09/15 04:03:01;;;;;;;;;;;18.50;96.70;;;;;;5058240;28;20250;-71
2021/09/15 04:05:26;;;;;;;;;;;18.50;96.70;;;;;;5035415;28;19924;-69
2021/09/15 04:07:51;;;;;;;;;;;18.50;96.80;;;;;;5058054;28;19919;-68
2021/09/15 04:10:17;;;;;;;;;;;18.50;96.70;;;;;;5052570;28;19912;-69
2021/09/15 04:12:42;;;;;;;;;;;18.40;96.80;;;;;;5056030;28;20005;-69
2021/09/15 04:15:08;;;;;;;;;;;18.40;96.90;;;;;;5038065;28;19988;-69
2021/09/15 04:17:33;;;;;;;;;;;18.40;97.00;;;;;;5059185;28;19958;-69
2021/09/15 04:19:59;;;;;;;;;;;18.40;96.80;;;;;;5051818;28;20301;-70
2021/09/15 04:22:24;;;;;;;;;;;18.40;96.80;;;;;;5052875;28;20294;-70
2021/09/15 04:32:33;;;;;;;;;;;18.50;96.80;;;;;;5057352;28;19932;-70
2021/09/15 04:34:58;;;;;;;;;;;18.50;96.70;;;;;;5039329;28;19916;-70
2021/09/15 04:37:24;;;;;;;;;;;18.40;96.70;;;;;;5024527;28;19919;-70
2021/09/15 04:39:49;;;;;;;;;;;18.30;96.70;;;;;;5056946;28;19937;-69
2021/09/15 04:42:15;;;;;;;;;;;18.40;96.80;;;;;;5056855;28;20118;-72
2021/09/15 04:44:40;;;;;;;;;;;18.40;96.80;;;;;;5057323;28;20286;-70
2021/09/15 04:47:05;;;;;;;;;;;18.30;96.70;;;;;;5056119;28;20288;-70
2021/09/15 04:49:31;;;;;;;;;;;18.30;96.70;;;;;;5059892;28;19988;-70
2021/09/15 04:51:56;;;;;;;;;;;18.30;96.70;;;;;;5060072;28;20062;-71
2021/09/15 04:54:22;;;;;;;;;;;18.30;97.00;;;;;;5058586;28;19920;-70
2021/09/15 04:56:47;;;;;;;;;;;18.30;96.80;;;;;;5062022;28;19909;-70
2021/09/15 04:59:13;;;;;;;;;;;18.30;96.90;;;;;;5060820;28;19923;-70
2021/09/15 05:01:38;;;;;;;;;;;18.40;97.00;;;;;;5057823;28;19927;-70
2021/09/15 05:04:04;;;;;;;;;;;18.40;97.00;;;;;;5057835;28;20008;-71
2021/09/15 05:06:29;;;;;;;;;;;18.40;97.00;;;;;;5058661;28;19917;-70
2021/09/15 05:08:54;;;;;;;;;;;18.40;97.00;;;;;;5058974;28;19986;-70
2021/09/15 05:11:20;;;;;;;;;;;18.40;97.10;;;;;;5060692;28;19917;-69
2021/09/15 05:13:45;;;;;;;;;;;18.40;97.00;;;;;;5059383;28;19916;-70
2021/09/15 05:16:11;;;;;;;;;;;18.40;97.00;;;;;;5060155;28;19919;-70
2021/09/15 05:18:36;;;;;;;;;;;18.40;97.00;;;;;;5043623;28;19919;-70
2021/09/15 05:21:02;;;;;;;;;;;18.40;97.10;;;;;;5057770;28;19920;-70
2021/09/15 05:23:27;;;;;;;;;;;18.40;97.10;;;;;;5058082;28;20386;-70
2021/09/15 05:25:53;;;;;;;;;;;18.40;97.10;;;;;;5058048;28;19917;-71
2021/09/15 05:28:18;;;;;;;;;;;18.40;97.20;;;;;;5060410;28;20346;-70
2021/09/15 05:30:43;;;;;;;;;;;18.40;97.20;;;;;;5060086;28;19920;-70
2021/09/15 05:33:09;;;;;;;;;;;18.40;97.20;;;;;;5060713;28;19955;-70
2021/09/15 05:35:35;;;;;;;;;;;18.50;97.10;;;;;;5059713;28;19917;-70
2021/09/15 05:38:00;;;;;;;;;;;18.40;97.10;;;;;;5058689;28;20291;-70
2021/09/15 05:40:26;;;;;;;;;;;18.50;97.10;;;;;;5060552;28;19913;-71
2021/09/15 05:42:51;;;;;;;;;;;18.50;97.20;;;;;;5060807;28;19909;-71
2021/09/15 05:45:16;;;;;;;;;;;18.50;97.20;;;;;;5060344;28;19917;-70
2021/09/15 05:47:42;;;;;;;;;;;18.50;97.10;;;;;;5061620;28;20005;-70
2021/09/15 05:50:08;;;;;;;;;;;18.50;97.20;;;;;;5061459;28;20390;-71
2021/09/15 05:52:33;;;;;;;;;;;18.50;97.20;;;;;;5060904;28;19909;-71
2021/09/15 05:54:59;;;;;;;;;;;18.50;97.10;;;;;;5060023;28;19943;-70
2021/09/15 05:57:24;;;;;;;;;;;18.50;97.10;;;;;;5057905;28;19921;-77
2021/09/15 05:59:50;;;;;;;;;;;18.50;97.10;;;;;;5059688;28;19928;-78
2021/09/15 06:02:15;;;;;;;;;;;18.50;97.00;;;;;;5056463;28;19912;-78
2021/09/15 06:04:40;;;;;;;;;;;18.50;97.00;;;;;;5054889;28;19913;-79
2021/09/15 06:07:06;;;;;;;;;;;18.60;97.20;;;;;;5056986;28;19938;-78
2021/09/15 06:09:31;;;;;;;;;;;18.70;97.00;;;;;;5060665;28;19971;-78
2021/09/15 06:11:57;;;;;;;;;;;18.90;96.90;;;;;;5025780;28;20541;-78
2021/09/15 06:14:22;;;;;;;;;;;19.00;96.70;;;;;;5059591;28;20015;-78
2021/09/15 06:16:48;;;;;;;;;;;19.10;96.60;;;;;;5058400;28;19916;-78
2021/09/15 06:19:13;;;;;;;;;;;19.20;96.60;;;;;;5060328;28;19916;-78
2021/09/15 06:21:39;;;;;;;;;;;19.40;96.40;;;;;;5075539;22;20043;-60
2021/09/15 06:24:04;;;;;;;;;;;19.40;96.20;;;;;;5064390;28;19948;-58
2021/09/15 06:26:30;;;;;;;;;;;19.50;96.10;;;;;;5064054;28;19916;-58
2021/09/15 06:28:56;;;;;;;;;;;19.60;96.10;;;;;;5065282;28;19962;-60
2021/09/15 06:31:21;;;;;;;;;;;19.60;96.00;;;;;;5064652;28;20296;-59
2021/09/15 06:33:47;;;;;;;;;;;19.60;95.90;;;;;;5046207;28;19928;-59
2021/09/15 06:36:13;;;;;;;;;;;19.70;95.80;;;;;;5050254;28;20018;-59
2021/09/15 06:38:40;;;;;;;;;;;19.80;95.80;;;;;;5049724;28;19913;-59
2021/09/15 06:41:06;;;;;;;;;;;19.80;95.70;;;;;;5051197;28;19928;-59
2021/09/15 06:43:31;;;;;;;;;;;19.90;95.70;;;;;;5043973;28;19963;-59
2021/09/15 06:45:57;;;;;;;;;;;19.90;95.60;;;;;;5043707;28;19924;-58
2021/09/15 06:48:22;;;;;;;;;;;19.90;95.60;;;;;;5044251;28;19917;-59
2021/09/15 06:50:48;;;;;;;;;;;20.00;95.50;;;;;;5045660;28;19996;-59
2021/09/15 06:53:13;;;;;;;;;;;20.00;95.40;;;;;;5045350;28;19941;-59
2021/09/15 06:55:38;;;;;;;;;;;20.10;95.30;;;;;;5045174;28;19919;-59
2021/09/15 06:58:04;;;;;;;;;;;20.10;95.20;;;;;;5054905;28;19924;-59
2021/09/15 07:00:29;;;;;;;;;;;20.10;95.30;;;;;;5042738;28;20961;-59
2021/09/15 07:02:55;;;;;;;;;;;20.10;95.20;;;;;;5049851;28;19909;-59
2021/09/15 07:05:21;;;;;;;;;;;20.20;95.20;;;;;;5044964;28;19920;-59
2021/09/15 07:07:46;;;;;;;;;;;20.20;95.20;;;;;;5045263;28;19919;-59
2021/09/15 07:10:12;;;;;;;;;;;20.20;95.20;;;;;;5049903;28;20083;-59
2021/09/15 07:12:38;;;;;;;;;;;20.30;95.20;;;;;;5050174;28;19920;-59
2021/09/15 07:15:07;;;;;;;;;;;20.40;95.10;;;;;;5045027;28;20000;-59
2021/09/15 07:17:33;;;;;;;;;;;20.40;95.00;;;;;;5045774;28;20430;-59
2021/09/15 07:19:58;;;;;;;;;;;20.40;95.00;;;;;;5045669;28;19917;-58
2021/09/15 07:22:24;;;;;;;;;;;20.40;95.00;;;;;;5053870;28;19920;-59
2021/09/15 07:24:51;;;;;;;;;;;20.40;95.00;;;;;;5052644;28;20566;-59
2021/09/15 07:27:17;;;;;;;;;;;20.40;95.00;;;;;;5050887;28;19924;-59
2021/09/15 07:29:42;;;;;;;;;;;20.30;95.00;;;;;;5046240;28;19913;-59
2021/09/15 07:32:08;;;;;;;;;;;20.30;95.10;;;;;;5046859;28;19913;-59
2021/09/15 07:34:33;;;;;;;;;;;20.40;95.10;;;;;;5044850;28;19924;-60
2021/09/15 07:36:59;;;;;;;;;;;20.50;95.10;;;;;;5044232;28;19913;-59
2021/09/15 07:39:24;;;;;;;;;;;20.50;95.10;;;;;;5045316;28;20342;-59
2021/09/15 07:41:50;;;;;;;;;;;20.60;95.10;;;;;;5042926;28;19920;-59
2021/09/15 07:44:15;;;;;;;;;;;20.70;95.00;;;;;;5045187;28;19958;-59
2021/09/15 07:46:41;;;;;;;;;;;20.80;95.00;;;;;;5048237;28;20003;-59
2021/09/15 07:49:06;;;;;;;;;;;20.80;95.00;;;;;;5045959;28;20303;-59
2021/09/15 07:51:31;;;;;;;;;;;20.80;95.10;;;;;;5046589;28;20277;-59
2021/09/15 07:53:57;;;;;;;;;;;20.80;95.10;;;;;;5042750;28;19913;-60
2021/09/15 07:56:22;;;;;;;;;;;20.80;95.10;;;;;;5045549;28;20364;-59
2021/09/15 07:58:48;;;;;;;;;;;20.80;95.10;;;;;;5051543;28;20695;-59
2021/09/15 08:01:13;;;;;;;;;;;20.80;95.20;;;;;;5044960;28;20419;-59
2021/09/15 08:03:39;;;;;;;;;;;20.80;95.40;;;;;;5046046;28;20522;-59
2021/09/15 08:06:05;;;;;;;;;;;20.80;95.50;;;;;;5044240;28;19913;-59
2021/09/15 08:08:31;;;;;;;;;;;20.80;95.50;;;;;;5052574;28;19991;-59
2021/09/15 08:10:57;;;;;;;;;;;20.80;95.40;;;;;;5054621;28;20377;-59
2021/09/15 08:13:25;;;;;;;;;;;20.90;95.50;;;;;;5045820;28;19913;-60
2021/09/15 08:15:51;;;;;;;;;;;21.00;95.40;;;;;;5046213;28;19913;-60
2021/09/15 08:18:16;;;;;;;;;;;21.00;95.30;;;;;;5048363;28;19996;-59
2021/09/15 08:20:45;;;;;;;;;;;21.20;95.30;;;;;;5044236;28;20012;-59
2021/09/15 08:23:12;;;;;;;;;;;21.20;95.10;;;;;;5044737;28;19920;-59
2021/09/15 08:25:37;;;;;;;;;;;21.30;95.10;;;;;;5043292;28;19924;-59
2021/09/15 08:28:04;;;;;;;;;;;21.40;95.10;;;;;;5043364;28;19913;-60
2021/09/15 08:30:29;;;;;;;;;;;21.50;95.00;;;;;;5046311;28;19954;-60
2021/09/15 08:32:54;;;;;;;;;;;21.60;95.00;;;;;;5044578;28;19921;-59
2021/09/15 08:35:20;;;;;;;;;;;21.70;94.90;;;;;;5043778;28;19970;-59
2021/09/15 08:37:45;;;;;;;;;;;21.80;94.70;;;;;;5044278;28;19912;-59
2021/09/15 08:40:11;;;;;;;;;;;21.80;94.70;;;;;;5044096;28;19925;-60
2021/09/15 08:42:37;;;;;;;;;;;21.80;94.60;;;;;;5043021;28;19913;-60
2021/09/15 08:45:03;;;;;;;;;;;21.80;94.60;;;;;;5042657;28;19923;-60
2021/09/15 08:47:29;;;;;;;;;;;21.80;94.60;;;;;;5027250;28;19913;-60
2021/09/15 08:49:55;;;;;;;;;;;21.80;94.60;;;;;;5044349;28;20389;-59
2021/09/15 08:52:21;;;;;;;;;;;21.80;94.50;;;;;;5045280;28;19920;-60
2021/09/15 08:54:46;;;;;;;;;;;21.80;94.50;;;;;;5044961;28;19979;-60
2021/09/15 08:57:11;;;;;;;;;;;21.80;94.50;;;;;;5046050;28;19916;-60
2021/09/15 08:59:37;;;;;;;;;;;21.80;94.50;;;;;;5050016;28;19983;-60
2021/09/15 09:02:21;;;;;;;;;;;21.80;94.40;;;;;;5044106;28;19927;-60
2021/09/15 09:04:53;;;;;;;;;;;21.80;94.40;;;;;;5040826;28;19920;-60
2021/09/15 09:07:18;;;;;;;;;;;21.80;94.40;;;;;;5047407;28;20451;-59
2021/09/15 09:09:48;;;;;;;;;;;21.80;94.40;;;;;;5048084;28;19947;-59
2021/09/15 09:12:14;;;;;;;;;;;21.80;94.40;;;;;;5051773;28;19953;-59
2021/09/15 09:14:40;;;;;;;;;;;21.80;94.50;;;;;;5041426;28;19917;-60
2021/09/15 09:17:05;;;;;;;;;;;21.80;94.50;;;;;;5045504;28;20015;-59
2021/09/15 09:19:30;;;;;;;;;;;21.90;94.50;;;;;;5045617;28;19916;-60
2021/09/15 09:22:00;;;;;;;;;;;22.00;94.50;;;;;;5042317;28;20529;-60
2021/09/15 09:24:26;;;;;;;;;;;22.10;94.40;;;;;;5043792;28;20369;-60
2021/09/15 09:26:53;;;;;;;;;;;22.10;94.30;;;;;;5045321;28;19962;-60
2021/09/15 09:29:18;;;;;;;;;;;22.20;94.30;;;;;;5045495;28;19908;-60
2021/09/15 09:31:53;;;;;;;;;;;22.30;94.30;;;;;;5043976;28;19920;-60
2021/09/15 09:34:20;;;;;;;;;;;22.30;94.30;;;;;;5044975;28;20003;-60
2021/09/15 09:36:55;;;;;;;;;;;22.30;94.30;;;;;;5050210;28;20369;-60
2021/09/15 09:39:20;;;;;;;;;;;22.30;94.30;;;;;;5047205;28;19927;-60
2021/09/15 09:41:46;;;;;;;;;;;22.30;94.30;;;;;;5044551;28;19921;-60
2021/09/15 09:44:25;;;;;;;;;;;22.40;94.40;;;;;;5045043;28;20038;-60
2021/09/15 09:46:50;;;;;;;;;;;22.50;94.40;;;;;;5047425;28;20001;-61
2021/09/15 09:49:16;;;;;;;;;;;22.60;94.20;;;;;;5046422;28;19968;-60
2021/09/15 09:51:41;;;;;;;;;;;22.60;94.00;;;;;;5048146;28;19943;-60
2021/09/15 09:54:17;;;;;;;;;;;22.70;94.00;;;;;;5047613;28;20007;-61
2021/09/15 09:56:44;;;;;;;;;;;22.70;94.00;;;;;;5033011;28;19916;-61
2021/09/15 09:59:10;;;;;;;;;;;22.80;94.00;;;;;;5047382;28;19916;-60
2021/09/15 10:01:38;;;;;;;;;;;22.90;94.00;;;;;;5046970;28;19923;-60
2021/09/15 10:04:03;;;;;;;;;;;22.90;94.00;;;;;;5055320;28;19917;-60
2021/09/15 10:06:29;;;;;;;;;;;23.10;94.10;;;;;;5049979;28;19936;-60
2021/09/15 10:08:54;;;;;;;;;;;23.10;94.00;;;;;;5045506;28;19917;-60
2021/09/15 10:11:23;;;;;;;;;;;23.10;94.00;;;;;;5035003;28;19938;-61
2021/09/15 10:13:49;;;;;;;;;;;23.20;94.00;;;;;;5047709;28;19917;-61
2021/09/15 10:16:16;;;;;;;;;;;23.30;93.80;;;;;;5055244;28;19934;-60
2021/09/15 10:18:42;;;;;;;;;;;23.30;93.90;;;;;;5048843;28;19908;-60
2021/09/15 10:21:08;;;;;;;;;;;23.50;93.70;;;;;;5048478;28;19917;-59
2021/09/15 10:23:36;;;;;;;;;;;23.70;93.60;;;;;;5048902;28;19928;-59
2021/09/15 10:26:21;;;;;;;;;;;23.80;93.60;;;;;;5048311;28;19913;-59
2021/09/15 10:29:05;;;;;;;;;;;23.90;93.40;;;;;;5046570;28;20058;-59
2021/09/15 10:31:48;;;;;;;;;;;24.10;93.30;;;;;;5045990;28;19917;-60
2021/09/15 10:34:33;;;;;;;;;;;24.30;93.00;;;;;;5046544;28;20942;-60
2021/09/15 10:36:58;;;;;;;;;;;24.40;92.80;;;;;;5044582;28;19917;-60
2021/09/15 10:39:24;;;;;;;;;;;24.40;92.90;;;;;;5044704;28;19935;-59
2021/09/15 10:41:49;;;;;;;;;;;24.50;92.70;;;;;;5044611;28;19932;-59
2021/09/15 10:44:15;;;;;;;;;;;24.60;93.00;;;;;;5030063;28;19913;-60
2021/09/15 10:46:42;;;;;;;;;;;24.70;92.60;;;;;;5040301;28;19974;-60
2021/09/15 10:49:18;;;;;;;;;;;24.70;92.40;;;;;;5046179;28;19909;-60
2021/09/15 10:51:44;;;;;;;;;;;24.90;92.40;;;;;;5046734;28;19908;-59
2021/09/15 10:54:28;;;;;;;;;;;25.00;92.40;;;;;;5047353;28;19921;-60
2021/09/15 10:57:12;;;;;;;;;;;25.20;92.20;;;;;;5046759;28;19952;-60
2021/09/15 10:59:50;;;;;;;;;;;25.30;92.00;;;;;;5046327;28;19909;-60
2021/09/15 11:02:36;;;;;;;;;;;25.30;91.70;;;;;;5045510;28;19913;-59
2021/09/15 11:05:20;;;;;;;;;;;25.30;91.70;;;;;;5042400;28;19920;-60
2021/09/15 11:07:45;;;;;;;;;;;25.30;91.50;;;;;;5053544;28;19916;-60
2021/09/15 11:10:31;;;;;;;;;;;25.20;91.70;;;;;;5048597;28;19924;-60
2021/09/15 11:12:57;;;;;;;;;;;25.20;91.50;;;;;;5046169;28;20008;-59
2021/09/15 11:15:26;;;;;;;;;;;25.10;91.70;;;;;;5048423;28;20114;-60
2021/09/15 11:17:52;;;;;;;;;;;25.10;91.90;;;;;;5044241;28;19954;-59
2021/09/15 11:20:19;;;;;;;;;;;25.10;92.20;;;;;;5043919;28;20366;-60
2021/09/15 11:22:45;;;;;;;;;;;25.10;92.30;;;;;;5043351;28;20317;-61
2021/09/15 11:25:14;;;;;;;;;;;25.00;92.50;;;;;;5049995;28;19956;-60
2021/09/15 11:27:40;;;;;;;;;;;24.90;92.60;;;;;;5045645;28;19974;-59
2021/09/15 11:30:05;;;;;;;;;;;24.90;92.70;;;;;;5046151;28;19920;-60
2021/09/15 11:32:31;;;;;;;;;;;24.90;92.70;;;;;;5015774;28;19924;-59
2021/09/15 11:34:56;;;;;;;;;;;24.90;92.70;;;;;;5047020;28;20000;-60
2021/09/15 11:37:24;;;;;;;;;;;24.80;92.80;;;;;;5045821;28;19909;-59
2021/09/15 11:39:53;;;;;;;;;;;24.80;92.80;;;;;;5043928;28;20726;-60
2021/09/15 11:42:30;;;;;;;;;;;24.70;92.80;;;;;;5026649;28;19927;-59
2021/09/15 11:45:28;;;;;;;;;;;24.70;93.10;;;;;;5042637;28;19916;-60
2021/09/15 11:47:54;;;;;;;;;;;24.60;93.30;;;;;;5011592;28;20028;-60
2021/09/15 11:50:20;;;;;;;;;;;24.40;93.70;;;;;;5043607;28;19924;-60
2021/09/15 11:52:49;;;;;;;;;;;24.20;94.10;;;;;;5046764;28;19908;-60
2021/09/15 11:55:16;;;;;;;;;;;24.10;94.20;;;;;;5023472;28;19917;-60
2021/09/15 11:57:46;;;;;;;;;;;24.00;94.50;;;;;;5045908;28;20403;-59
2021/09/15 12:00:12;;;;;;;;;;;23.90;94.50;;;;;;5048061;28;19917;-59
2021/09/15 12:02:38;;;;;;;;;;;23.70;94.70;;;;;;5043519;28;19912;-60
2021/09/15 12:05:04;;;;;;;;;;;23.70;95.00;;;;;;5025568;28;19935;-60
2021/09/15 12:07:30;;;;;;;;;;;23.60;95.20;;;;;;5039666;28;19917;-60
2021/09/15 12:09:56;;;;;;;;;;;23.50;95.30;;;;;;5041496;28;19917;-60
2021/09/15 12:12:21;;;;;;;;;;;23.50;95.60;;;;;;5042665;28;19920;-60
2021/09/15 12:14:48;;;;;;;;;;;23.50;95.70;;;;;;5046682;28;19913;-60
2021/09/15 12:17:14;;;;;;;;;;;23.50;96.00;;;;;;5044207;28;20000;-60
2021/09/15 12:19:46;;;;;;;;;;;23.50;96.00;;;;;;5043118;28;19999;-60
2021/09/15 12:22:17;;;;;;;;;;;23.50;96.00;;;;;;5087857;22;19924;-66
2021/09/15 12:24:57;;;;;;;;;;;23.50;96.00;;;;;;5080583;28;20253;-63
2021/09/15 12:27:23;;;;;;;;;;;23.50;95.80;;;;;;5084955;28;19916;-63
2021/09/15 12:29:56;;;;;;;;;;;23.50;95.90;;;;;;5085402;28;19999;-65
2021/09/15 12:32:32;;;;;;;;;;;23.60;95.90;;;;;;5069216;28;19920;-66
2021/09/15 12:34:58;;;;;;;;;;;23.70;95.80;;;;;;5062187;28;19928;-65
2021/09/15 12:37:23;;;;;;;;;;;23.80;95.70;;;;;;5070430;28;19912;-62
2021/09/15 12:39:58;;;;;;;;;;;23.80;95.50;;;;;;5074387;28;19912;-63
2021/09/15 12:42:25;;;;;;;;;;;23.90;95.30;;;;;;5070715;28;20068;-65
2021/09/15 12:45:01;;;;;;;;;;;24.00;95.30;;;;;;5062833;28;19923;-65
2021/09/15 12:47:33;;;;;;;;;;;24.10;95.10;;;;;;5067171;28;19925;-62
2021/09/15 12:50:03;;;;;;;;;;;24.20;95.10;;;;;;5060844;28;19920;-65
2021/09/15 12:52:29;;;;;;;;;;;24.20;95.00;;;;;;5063862;28;19985;-65
2021/09/15 12:54:55;;;;;;;;;;;24.30;95.00;;;;;;5060443;28;20550;-65
2021/09/15 12:57:26;;;;;;;;;;;24.30;95.00;;;;;;5065957;28;19919;-65
2021/09/15 12:59:52;;;;;;;;;;;24.30;95.00;;;;;;5061323;28;20347;-65
2021/09/15 13:02:22;;;;;;;;;;;24.30;95.00;;;;;;5064472;28;20005;-63
2021/09/15 13:04:48;;;;;;;;;;;24.30;94.90;;;;;;5066049;28;19919;-66
2021/09/15 13:07:14;;;;;;;;;;;24.30;95.00;;;;;;5072112;28;19913;-66
2021/09/15 13:09:39;;;;;;;;;;;24.20;95.00;;;;;;5066662;28;19916;-66
2021/09/15 13:12:05;;;;;;;;;;;24.20;95.30;;;;;;5074625;28;19908;-66
2021/09/15 13:14:31;;;;;;;;;;;24.10;95.70;;;;;;5068609;28;20048;-65
2021/09/15 13:16:56;;;;;;;;;;;24.10;95.50;;;;;;5076686;28;19909;-64
2021/09/15 13:19:22;;;;;;;;;;;24.00;95.30;;;;;;5079056;28;19913;-65
2021/09/15 13:21:47;;;;;;;;;;;23.90;95.10;;;;;;5072192;28;19973;-65
2021/09/15 13:24:12;;;;;;;;;;;23.80;95.10;;;;;;5079083;28;20396;-65
2021/09/15 13:26:38;;;;;;;;;;;23.80;95.20;;;;;;5083588;28;20523;-65
2021/09/15 13:29:03;;;;;;;;;;;23.80;95.20;;;;;;5082452;28;19913;-65
2021/09/15 13:31:29;;;;;;;;;;;23.70;95.30;;;;;;5070427;28;19909;-65
2021/09/15 13:33:54;;;;;;;;;;;23.70;95.40;;;;;;5068379;28;19913;-66
2021/09/15 13:36:20;;;;;;;;;;;23.60;95.60;;;;;;5088997;28;20062;-66
2021/09/15 13:38:45;;;;;;;;;;;23.60;95.90;;;;;;5082773;28;20406;-65
2021/09/15 13:41:11;;;;;;;;;;;23.60;96.00;;;;;;5069159;28;19920;-65
2021/09/15 13:43:36;;;;;;;;;;;23.60;96.20;;;;;;5068956;28;19909;-66
2021/09/15 13:46:03;;;;;;;;;;;23.60;96.40;;;;;;5068782;28;19995;-65
2021/09/15 13:48:29;;;;;;;;;;;23.70;96.20;;;;;;5068966;28;19963;-65
2021/09/15 13:50:55;;;;;;;;;;;23.60;96.10;;;;;;5071741;28;20295;-66
2021/09/15 13:53:20;;;;;;;;;;;23.60;95.90;;;;;;5071348;28;20018;-66
2021/09/15 13:55:46;;;;;;;;;;;23.60;95.90;;;;;;5067859;28;20418;-64
2021/09/15 13:58:11;;;;;;;;;;;23.50;96.10;;;;;;5068643;28;20336;-66
2021/09/15 14:00:37;;;;;;;;;;;23.50;96.30;;;;;;5066727;28;20376;-65
2021/09/15 14:03:02;;;;;;;;;;;23.50;96.40;;;;;;5071922;28;19959;-65
2021/09/15 14:05:27;;;;;;;;;;;23.50;96.50;;;;;;5069762;28;19947;-66
2021/09/15 14:07:53;;;;;;;;;;;23.50;96.50;;;;;;5065395;28;20011;-66
2021/09/15 14:10:18;;;;;;;;;;;23.40;96.40;;;;;;5065335;28;19973;-68
2021/09/15 14:12:44;;;;;;;;;;;23.40;96.50;;;;;;5075127;28;19916;-66
2021/09/15 14:15:09;;;;;;;;;;;23.30;96.50;;;;;;5065257;28;20076;-65
2021/09/15 14:17:36;;;;;;;;;;;23.30;96.60;;;;;;5067553;28;20027;-66
2021/09/15 14:20:01;;;;;;;;;;;23.30;96.60;;;;;;5063056;28;19920;-66